Time;durP1;ratioP1;P1;durP2;ratioP2;P2;SDS_P1;SDS_P2;PMS_P1;PMS_P2;Temp;Humidity;BMP_temperature;BMP_pressure;BME280_temperature;BME280_humidity;BME280_pressure;Samples;Min_cycle;Max_cycle;Signal;HPM_P1;HPM_P2
2024/04/07 00:01:50;;;;;;;0.63;0.63;;;;;;;;;;4988666;28;20034;-84
2024/04/07 00:04:16;;;;;;;0.68;0.50;;;;;;;;;;4971741;28;20389;-83
2024/04/07 00:06:42;;;;;;;0.60;0.60;;;;;;;;;;5011830;28;20073;-82
2024/04/07 00:09:08;;;;;;;0.47;0.47;;;;;;;;;;4979749;28;20034;-82
2024/04/07 00:11:34;;;;;;;0.70;0.70;;;;;;;;;;4986763;28;20046;-83
2024/04/07 00:14:01;;;;;;;0.40;0.40;;;;;;;;;;5004121;28;20022;-82
2024/04/07 00:16:27;;;;;;;0.50;0.40;;;;;;;;;;4985227;28;20034;-82
2024/04/07 00:18:54;;;;;;;0.50;0.50;;;;;;;;;;4989781;28;20487;-82
2024/04/07 00:21:27;;;;;;;0.40;0.40;;;;;;;;;;5016761;28;20473;-80
2024/04/07 00:23:57;;;;;;;0.63;0.63;;;;;;;;;;5005026;28;20086;-82
2024/04/07 00:26:23;;;;;;;0.40;0.40;;;;;;;;;;4990101;28;20034;-81
2024/04/07 00:28:49;;;;;;;0.43;0.43;;;;;;;;;;4981324;28;20104;-80
2024/04/07 00:31:15;;;;;;;0.30;0.30;;;;;;;;;;4994344;28;20038;-82
2024/04/07 00:33:41;;;;;;;0.50;0.50;;;;;;;;;;4982781;28;20275;-81
2024/04/07 00:36:09;;;;;;;0.43;0.43;;;;;;;;;;4986620;28;20064;-80
2024/04/07 00:38:35;;;;;;;0.38;0.38;;;;;;;;;;4985130;28;20040;-81
2024/04/07 00:41:02;;;;;;;0.40;0.40;;;;;;;;;;4998718;28;20018;-80
2024/04/07 00:43:28;;;;;;;0.20;0.20;;;;;;;;;;4990754;28;20046;-81
2024/04/07 00:45:58;;;;;;;0.40;0.40;;;;;;;;;;4980034;28;20033;-81
2024/04/07 00:48:24;;;;;;;0.40;0.40;;;;;;;;;;4988833;28;20057;-82
2024/04/07 00:50:54;;;;;;;0.43;0.40;;;;;;;;;;4977219;28;20029;-81
2024/04/07 00:53:20;;;;;;;0.40;0.40;;;;;;;;;;4989927;28;20157;-81
2024/04/07 00:55:47;;;;;;;0.30;0.30;;;;;;;;;;4994977;28;20443;-82
2024/04/07 00:58:14;;;;;;;0.35;0.30;;;;;;;;;;4980663;28;20481;-80
2024/04/07 01:00:42;;;;;;;0.20;0.20;;;;;;;;;;4995010;28;20105;-82
2024/04/07 01:03:08;;;;;;;0.32;0.32;;;;;;;;;;5003810;28;20018;-81
2024/04/07 01:05:48;;;;;;;0.30;0.30;;;;;;;;;;4976706;28;20062;-81
2024/04/07 01:08:15;;;;;;;0.50;0.50;;;;;;;;;;4981174;28;20031;-80
2024/04/07 01:10:42;;;;;;;0.30;0.30;;;;;;;;;;4989512;28;20102;-81
2024/04/07 01:13:08;;;;;;;0.10;0.10;;;;;;;;;;5004022;28;20021;-80
2024/04/07 01:15:35;;;;;;;0.73;0.68;;;;;;;;;;4984776;28;20114;-83
2024/04/07 01:18:01;;;;;;;2.67;0.93;;;;;;;;;;5014870;28;20030;-82
2024/04/07 01:20:28;;;;;;;0.85;0.85;;;;;;;;;;4984471;28;20069;-81
2024/04/07 01:22:54;;;;;;;1.08;0.95;;;;;;;;;;5002958;28;20026;-81
2024/04/07 01:25:21;;;;;;;0.77;0.75;;;;;;;;;;4984887;28;20425;-81
2024/04/07 01:27:54;;;;;;;1.10;1.00;;;;;;;;;;5003134;28;20587;-82
2024/04/07 01:30:21;;;;;;;1.67;1.27;;;;;;;;;;4993016;28;20023;-82
2024/04/07 01:32:47;;;;;;;2.15;1.13;;;;;;;;;;4991418;28;20026;-84
2024/04/07 01:35:13;;;;;;;1.10;0.93;;;;;;;;;;5001025;28;20046;-81
2024/04/07 01:37:40;;;;;;;1.75;0.90;;;;;;;;;;4983874;28;20053;-81
2024/04/07 01:40:08;;;;;;;1.17;1.08;;;;;;;;;;4994690;28;20057;-81
2024/04/07 01:42:35;;;;;;;0.68;0.68;;;;;;;;;;5008455;28;20034;-82
2024/04/07 01:45:02;;;;;;;1.02;0.88;;;;;;;;;;5002398;28;20018;-84
2024/04/07 01:47:28;;;;;;;0.93;0.90;;;;;;;;;;4983698;28;20098;-82
2024/04/07 01:49:54;;;;;;;0.68;0.60;;;;;;;;;;4989056;28;20049;-81
2024/04/07 01:52:20;;;;;;;0.70;0.70;;;;;;;;;;4997781;28;20091;-81
2024/04/07 01:54:46;;;;;;;0.68;0.68;;;;;;;;;;5003391;28;20092;-81
2024/04/07 01:57:13;;;;;;;0.50;0.50;;;;;;;;;;4990857;28;20034;-81
2024/04/07 01:59:39;;;;;;;0.60;0.60;;;;;;;;;;4998672;28;20054;-80
2024/04/07 02:02:05;;;;;;;0.68;0.68;;;;;;;;;;4984514;28;20037;-81
2024/04/07 02:04:32;;;;;;;0.60;0.60;;;;;;;;;;4981938;28;20035;-81
2024/04/07 02:06:58;;;;;;;0.60;0.50;;;;;;;;;;4971277;28;20093;-81
2024/04/07 02:09:24;;;;;;;1.02;0.73;;;;;;;;;;4976579;28;20019;-80
2024/04/07 02:11:50;;;;;;;0.65;0.60;;;;;;;;;;4999358;28;20026;-82
2024/04/07 02:14:16;;;;;;;0.65;0.65;;;;;;;;;;5005819;28;20074;-82
2024/04/07 02:16:42;;;;;;;0.60;0.57;;;;;;;;;;5009301;28;20040;-80
2024/04/07 02:19:11;;;;;;;0.50;0.50;;;;;;;;;;5017847;28;20037;-80
2024/04/07 02:21:37;;;;;;;0.38;0.38;;;;;;;;;;4992257;28;20027;-82
2024/04/07 02:24:04;;;;;;;0.43;0.40;;;;;;;;;;5010650;28;20090;-79
2024/04/07 02:26:31;;;;;;;0.50;0.50;;;;;;;;;;5004424;28;20034;-81
2024/04/07 02:28:57;;;;;;;0.60;0.60;;;;;;;;;;5009725;28;20018;-80
2024/04/07 02:31:24;;;;;;;0.93;0.60;;;;;;;;;;5000602;28;20077;-80
2024/04/07 02:36:53;;;;;;;1.05;0.65;;;;;;;;;;5004304;28;20033;-84
2024/04/07 02:39:21;;;;;;;1.33;0.50;;;;;;;;;;5001998;28;20038;-84
2024/04/07 02:41:47;;;;;;;0.50;0.50;;;;;;;;;;5009880;28;20095;-85
2024/04/07 02:44:15;;;;;;;0.50;0.50;;;;;;;;;;4983127;28;20021;-86
2024/04/07 02:49:26;;;;;;;0.55;0.50;;;;;;;;;;5025848;28;20065;-84
2024/04/07 02:51:53;;;;;;;0.50;0.50;;;;;;;;;;5018657;28;20049;-85
2024/04/07 02:54:19;;;;;;;1.30;0.50;;;;;;;;;;5004001;28;20065;-81
2024/04/07 02:56:45;;;;;;;0.75;0.60;;;;;;;;;;5000036;28;20465;-81
2024/04/07 02:59:11;;;;;;;0.47;0.40;;;;;;;;;;4989257;28;20149;-81
2024/04/07 03:01:37;;;;;;;0.98;0.68;;;;;;;;;;4991034;28;20042;-81
2024/04/07 03:04:04;;;;;;;0.40;0.40;;;;;;;;;;5000692;28;20018;-81
2024/04/07 03:06:32;;;;;;;0.65;0.50;;;;;;;;;;4999875;28;20038;-81
2024/04/07 03:08:58;;;;;;;0.68;0.68;;;;;;;;;;4985700;28;20405;-81
2024/04/07 03:11:24;;;;;;;0.40;0.40;;;;;;;;;;5004807;28;20071;-81
2024/04/07 03:13:50;;;;;;;2.25;0.75;;;;;;;;;;4999846;28;20389;-80
2024/04/07 03:16:16;;;;;;;0.50;0.50;;;;;;;;;;4993978;28;20101;-80
2024/04/07 03:18:43;;;;;;;1.25;0.60;;;;;;;;;;4995898;28;20025;-80
2024/04/07 03:21:10;;;;;;;0.63;0.50;;;;;;;;;;5018863;28;20036;-80
2024/04/07 03:23:36;;;;;;;1.20;0.88;;;;;;;;;;5001092;28;20056;-81
2024/04/07 03:26:02;;;;;;;0.85;0.50;;;;;;;;;;4991256;28;20101;-81
2024/04/07 03:28:28;;;;;;;0.43;0.40;;;;;;;;;;4998779;28;20042;-81
2024/04/07 03:30:54;;;;;;;0.60;0.60;;;;;;;;;;4978687;28;20022;-81
2024/04/07 03:33:20;;;;;;;0.50;0.50;;;;;;;;;;5016590;28;20098;-80
2024/04/07 03:35:47;;;;;;;0.70;0.70;;;;;;;;;;5020834;28;20077;-80
2024/04/07 03:38:13;;;;;;;0.40;0.40;;;;;;;;;;5009397;28;20019;-80
2024/04/07 03:40:39;;;;;;;0.40;0.40;;;;;;;;;;4989630;28;20557;-81
2024/04/07 03:43:07;;;;;;;0.65;0.55;;;;;;;;;;4987882;28;20030;-81
2024/04/07 03:45:34;;;;;;;0.40;0.40;;;;;;;;;;4988416;28;20083;-81
2024/04/07 03:48:00;;;;;;;0.32;0.32;;;;;;;;;;4992678;28;20030;-80
2024/04/07 03:50:26;;;;;;;0.40;0.40;;;;;;;;;;4982967;28;20459;-80
2024/04/07 03:52:52;;;;;;;0.25;0.25;;;;;;;;;;5009006;28;20037;-80
2024/04/07 03:55:18;;;;;;;0.60;0.60;;;;;;;;;;5010475;28;20108;-80
2024/04/07 03:57:45;;;;;;;0.50;0.50;;;;;;;;;;4999817;28;20030;-80
2024/04/07 04:00:11;;;;;;;0.43;0.40;;;;;;;;;;4985947;28;20037;-80
2024/04/07 04:02:37;;;;;;;0.60;0.40;;;;;;;;;;4988992;28;20037;-80
2024/04/07 04:05:04;;;;;;;0.45;0.45;;;;;;;;;;4992534;28;20026;-81
2024/04/07 04:07:31;;;;;;;0.50;0.50;;;;;;;;;;5004064;28;20184;-81
2024/04/07 04:10:01;;;;;;;0.50;0.50;;;;;;;;;;5007319;28;20030;-82
2024/04/07 04:12:28;;;;;;;0.40;0.40;;;;;;;;;;4990097;28;20034;-81
2024/04/07 04:14:54;;;;;;;1.17;0.57;;;;;;;;;;5008835;28;20523;-81
2024/04/07 04:17:21;;;;;;;0.65;0.52;;;;;;;;;;5005305;28;20042;-81
2024/04/07 04:19:47;;;;;;;0.47;0.47;;;;;;;;;;5001021;28;20082;-81
2024/04/07 04:22:13;;;;;;;0.43;0.43;;;;;;;;;;5005795;28;20104;-81
2024/04/07 04:24:39;;;;;;;0.28;0.28;;;;;;;;;;4999125;28;20027;-80
2024/04/07 04:27:06;;;;;;;0.63;0.50;;;;;;;;;;4988151;28;20027;-80
2024/04/07 04:29:36;;;;;;;0.32;0.32;;;;;;;;;;4981107;28;20070;-81
2024/04/07 04:32:03;;;;;;;0.32;0.32;;;;;;;;;;5014652;28;20074;-82
2024/04/07 04:34:29;;;;;;;0.30;0.30;;;;;;;;;;5000042;28;20049;-82
2024/04/07 04:36:56;;;;;;;0.30;0.30;;;;;;;;;;5011940;28;20026;-81
2024/04/07 04:39:22;;;;;;;0.90;0.50;;;;;;;;;;5008087;28;20022;-81
2024/04/07 04:41:48;;;;;;;0.32;0.30;;;;;;;;;;5006815;28;20078;-81
2024/04/07 04:44:15;;;;;;;0.40;0.40;;;;;;;;;;5002990;28;20082;-82
2024/04/07 04:46:44;;;;;;;0.45;0.30;;;;;;;;;;4982744;28;20030;-81
2024/04/07 04:49:10;;;;;;;0.35;0.32;;;;;;;;;;4999413;28;20122;-82
2024/04/07 04:51:36;;;;;;;0.30;0.30;;;;;;;;;;4983651;28;20114;-81
2024/04/07 04:54:03;;;;;;;0.40;0.40;;;;;;;;;;5013378;28;20018;-82
2024/04/07 04:56:29;;;;;;;0.22;0.22;;;;;;;;;;4999346;28;20109;-82
2024/04/07 04:58:57;;;;;;;0.20;0.20;;;;;;;;;;4990413;28;20025;-82
2024/04/07 05:01:23;;;;;;;0.30;0.30;;;;;;;;;;5016410;28;20032;-81
2024/04/07 05:03:50;;;;;;;0.25;0.25;;;;;;;;;;5001186;28;20445;-82
2024/04/07 05:06:17;;;;;;;0.80;0.40;;;;;;;;;;5020364;28;20021;-81
2024/04/07 05:08:43;;;;;;;0.22;0.22;;;;;;;;;;4993057;28;20021;-82
2024/04/07 05:11:10;;;;;;;0.68;0.30;;;;;;;;;;4986701;28;20536;-84
2024/04/07 05:13:36;;;;;;;0.22;0.22;;;;;;;;;;4995070;28;20034;-79
2024/04/07 05:16:03;;;;;;;0.45;0.45;;;;;;;;;;5017353;28;20029;-79
2024/04/07 05:18:30;;;;;;;0.40;0.40;;;;;;;;;;4994895;28;20531;-80
2024/04/07 05:20:57;;;;;;;0.30;0.30;;;;;;;;;;4983363;28;20124;-81
2024/04/07 05:23:24;;;;;;;0.30;0.30;;;;;;;;;;4999250;28;20050;-80
2024/04/07 05:25:50;;;;;;;0.52;0.30;;;;;;;;;;4984873;28;20030;-80
2024/04/07 05:28:17;;;;;;;0.20;0.20;;;;;;;;;;5013324;28;20026;-80
2024/04/07 05:30:43;;;;;;;0.30;0.30;;;;;;;;;;5021114;28;20560;-80
2024/04/07 05:33:09;;;;;;;0.20;0.20;;;;;;;;;;4998933;28;20085;-81
2024/04/07 05:35:36;;;;;;;0.20;0.20;;;;;;;;;;5005726;28;20117;-81
2024/04/07 05:38:03;;;;;;;0.22;0.22;;;;;;;;;;5016598;28;20018;-79
2024/04/07 05:40:29;;;;;;;0.30;0.22;;;;;;;;;;5019117;28;20018;-79
2024/04/07 05:42:55;;;;;;;0.30;0.30;;;;;;;;;;5030879;28;20089;-80
2024/04/07 05:45:22;;;;;;;0.35;0.30;;;;;;;;;;5016253;28;20069;-80
2024/04/07 05:47:49;;;;;;;1.45;0.35;;;;;;;;;;5017463;28;20061;-78
2024/04/07 05:50:15;;;;;;;0.20;0.20;;;;;;;;;;5014793;28;20053;-81
2024/04/07 05:52:42;;;;;;;0.20;0.20;;;;;;;;;;5011314;28;20184;-79
2024/04/07 05:55:11;;;;;;;0.20;0.20;;;;;;;;;;4997012;28;20110;-81
2024/04/07 05:57:38;;;;;;;0.10;0.10;;;;;;;;;;5012005;28;20025;-81
2024/04/07 06:00:12;;;;;;;0.20;0.20;;;;;;;;;;5020568;28;20034;-79
2024/04/07 06:02:38;;;;;;;0.10;0.10;;;;;;;;;;5011124;28;20029;-81
2024/04/07 06:05:04;;;;;;;0.28;0.28;;;;;;;;;;5034169;28;20153;-80
2024/04/07 06:07:30;;;;;;;0.13;0.13;;;;;;;;;;4999580;28;20030;-80
2024/04/07 06:09:57;;;;;;;0.10;0.10;;;;;;;;;;5003647;28;20026;-80
2024/04/07 06:12:23;;;;;;;0.10;0.10;;;;;;;;;;4986890;28;20082;-80
2024/04/07 06:14:49;;;;;;;0.10;0.10;;;;;;;;;;4988213;28;20041;-80
2024/04/07 06:17:18;;;;;;;0.30;0.30;;;;;;;;;;5007571;28;20477;-79
2024/04/07 06:19:44;;;;;;;0.10;0.10;;;;;;;;;;5015817;28;20030;-77
2024/04/07 06:22:11;;;;;;;0.10;0.10;;;;;;;;;;4994236;28;20026;-79
2024/04/07 06:24:39;;;;;;;0.50;0.40;;;;;;;;;;4999808;28;20157;-78
2024/04/07 06:27:05;;;;;;;0.10;0.10;;;;;;;;;;4983915;28;20461;-77
2024/04/07 06:29:32;;;;;;;0.17;0.15;;;;;;;;;;5017726;28;20014;-79
2024/04/07 06:31:58;;;;;;;0.10;0.10;;;;;;;;;;4972674;28;20467;-79
2024/04/07 06:34:25;;;;;;;0.20;0.20;;;;;;;;;;5016495;28;20023;-78
2024/04/07 06:36:51;;;;;;;0.17;0.17;;;;;;;;;;5016457;28;20044;-79
2024/04/07 06:39:17;;;;;;;0.20;0.20;;;;;;;;;;4996883;28;20109;-77
2024/04/07 06:41:43;;;;;;;0.10;0.10;;;;;;;;;;5000051;28;20072;-77
2024/04/07 06:44:09;;;;;;;0.13;0.13;;;;;;;;;;4996431;28;20027;-77
2024/04/07 06:46:35;;;;;;;0.20;0.20;;;;;;;;;;4999975;28;20053;-79
2024/04/07 06:49:02;;;;;;;0.20;0.20;;;;;;;;;;4977803;28;20042;-79
2024/04/07 06:51:31;;;;;;;0.17;0.17;;;;;;;;;;5006713;28;20155;-78
2024/04/07 06:53:57;;;;;;;0.10;0.10;;;;;;;;;;4997714;28;20049;-78
2024/04/07 06:56:23;;;;;;;0.20;0.20;;;;;;;;;;4995473;28;20081;-78
2024/04/07 06:58:53;;;;;;;0.25;0.25;;;;;;;;;;5008418;28;20045;-80
2024/04/07 07:01:19;;;;;;;0.20;0.20;;;;;;;;;;5017095;28;20049;-81
2024/04/07 07:03:45;;;;;;;0.28;0.28;;;;;;;;;;4997249;28;20103;-81
2024/04/07 07:06:14;;;;;;;0.20;0.20;;;;;;;;;;5004592;28;20038;-81
2024/04/07 07:08:43;;;;;;;0.13;0.13;;;;;;;;;;5002491;28;20041;-81
2024/04/07 07:11:10;;;;;;;0.30;0.30;;;;;;;;;;5002326;28;20018;-81
2024/04/07 07:13:43;;;;;;;0.20;0.20;;;;;;;;;;5001886;28;20073;-81
2024/04/07 07:16:10;;;;;;;0.20;0.20;;;;;;;;;;4983916;28;20042;-81
2024/04/07 07:18:36;;;;;;;0.15;0.15;;;;;;;;;;4983876;28;20110;-81
2024/04/07 07:21:03;;;;;;;0.28;0.28;;;;;;;;;;4984976;28;20037;-82
2024/04/07 07:23:29;;;;;;;0.20;0.20;;;;;;;;;;5002865;28;20768;-82
2024/04/07 07:25:56;;;;;;;0.40;0.40;;;;;;;;;;5002453;28;20083;-81
2024/04/07 07:28:22;;;;;;;2.08;0.80;;;;;;;;;;5001443;28;20022;-82
2024/04/07 07:30:49;;;;;;;1.10;0.68;;;;;;;;;;4992577;28;20446;-81
2024/04/07 07:33:15;;;;;;;5.00;1.30;;;;;;;;;;4999613;28;20433;-80
2024/04/07 07:35:44;;;;;;;1.33;1.17;;;;;;;;;;4978688;28;20058;-79
2024/04/07 07:41:19;;;;;;;2.40;1.90;;;;;;;;;;4976768;28;20030;-82
2024/04/07 07:43:45;;;;;;;1.45;1.08;;;;;;;;;;4970548;28;20125;-82
2024/04/07 07:46:12;;;;;;;1.08;1.00;;;;;;;;;;4998267;28;20062;-79
2024/04/07 07:48:39;;;;;;;2.38;1.80;;;;;;;;;;5000627;28;20059;-80
2024/04/07 07:51:12;;;;;;;1.13;1.02;;;;;;;;;;4998654;28;20050;-82
2024/04/07 07:53:39;;;;;;;1.60;1.08;;;;;;;;;;5004444;28;20030;-81
2024/04/07 07:56:05;;;;;;;1.08;0.77;;;;;;;;;;4996144;28;20053;-80
2024/04/07 07:58:38;;;;;;;0.90;0.85;;;;;;;;;;5013628;28;20034;-82
2024/04/07 08:01:05;;;;;;;1.88;0.60;;;;;;;;;;4979264;28;20061;-80
2024/04/07 08:03:31;;;;;;;1.20;0.90;;;;;;;;;;5007633;28;20058;-81
2024/04/07 08:05:58;;;;;;;1.02;0.93;;;;;;;;;;5002816;28;20019;-78
2024/04/07 08:08:24;;;;;;;1.10;0.80;;;;;;;;;;5009109;28;20030;-81
2024/04/07 08:10:50;;;;;;;0.50;0.50;;;;;;;;;;4990837;28;20026;-81
2024/04/07 08:13:16;;;;;;;0.70;0.70;;;;;;;;;;5003564;28;20049;-80
2024/04/07 08:15:46;;;;;;;0.55;0.55;;;;;;;;;;5014551;28;20029;-80
2024/04/07 08:18:12;;;;;;;0.60;0.60;;;;;;;;;;5008222;28;20018;-80
2024/04/07 08:20:39;;;;;;;0.50;0.50;;;;;;;;;;5016171;28;20037;-80
2024/04/07 08:23:05;;;;;;;2.42;0.80;;;;;;;;;;4986494;28;20030;-81
2024/04/07 08:25:33;;;;;;;0.60;0.60;;;;;;;;;;4998440;28;20018;-80
2024/04/07 08:27:59;;;;;;;0.70;0.70;;;;;;;;;;5003890;28;20116;-80
2024/04/07 08:30:26;;;;;;;1.58;0.80;;;;;;;;;;4997984;28;20030;-80
2024/04/07 08:32:52;;;;;;;0.98;0.68;;;;;;;;;;4996145;28;20026;-81
2024/04/07 08:35:18;;;;;;;0.70;0.70;;;;;;;;;;5002822;28;20026;-81
2024/04/07 08:37:44;;;;;;;1.05;0.73;;;;;;;;;;5003517;28;20086;-79
2024/04/07 08:40:11;;;;;;;0.90;0.80;;;;;;;;;;5006537;28;20602;-82
2024/04/07 08:42:40;;;;;;;0.68;0.68;;;;;;;;;;4987881;28;20050;-80
2024/04/07 08:45:07;;;;;;;0.73;0.70;;;;;;;;;;4998178;28;20101;-81
2024/04/07 08:47:36;;;;;;;1.35;0.75;;;;;;;;;;4989295;28;20026;-81
2024/04/07 08:50:03;;;;;;;0.73;0.73;;;;;;;;;;4996074;28;20030;-82
2024/04/07 08:52:29;;;;;;;0.60;0.60;;;;;;;;;;4993809;28;20018;-81
2024/04/07 08:54:55;;;;;;;0.77;0.75;;;;;;;;;;5007639;28;20022;-84
2024/04/07 08:57:23;;;;;;;0.63;0.63;;;;;;;;;;5005624;28;20082;-80
2024/04/07 08:59:51;;;;;;;0.95;0.77;;;;;;;;;;5004729;28;20026;-79
2024/04/07 09:02:18;;;;;;;0.82;0.80;;;;;;;;;;4982207;28;20033;-81
2024/04/07 09:04:44;;;;;;;1.58;1.35;;;;;;;;;;4993995;28;20034;-80
2024/04/07 09:07:11;;;;;;;0.60;0.57;;;;;;;;;;4995221;28;20019;-82
2024/04/07 09:09:37;;;;;;;1.08;0.82;;;;;;;;;;5001613;28;20051;-78
2024/04/07 09:12:04;;;;;;;1.50;0.70;;;;;;;;;;5002628;28;20022;-79
2024/04/07 09:14:34;;;;;;;2.45;1.20;;;;;;;;;;5001206;28;20097;-78
2024/04/07 09:17:01;;;;;;;1.15;0.90;;;;;;;;;;5003123;28;20110;-79
2024/04/07 09:19:29;;;;;;;0.95;0.90;;;;;;;;;;5002865;28;20110;-78
2024/04/07 09:21:56;;;;;;;1.67;1.00;;;;;;;;;;5002617;28;20026;-78
2024/04/07 09:24:22;;;;;;;1.25;1.13;;;;;;;;;;5003309;28;20037;-79
2024/04/07 09:26:48;;;;;;;1.42;0.90;;;;;;;;;;5004568;28;20085;-78
2024/04/07 09:29:14;;;;;;;1.40;0.90;;;;;;;;;;4985260;28;20031;-79
2024/04/07 09:31:40;;;;;;;2.35;1.00;;;;;;;;;;5001890;28;20105;-79
2024/04/07 09:34:07;;;;;;;1.33;1.00;;;;;;;;;;4993940;28;20114;-78
2024/04/07 09:36:33;;;;;;;1.05;0.80;;;;;;;;;;4999190;28;20054;-79
2024/04/07 09:38:59;;;;;;;1.30;1.00;;;;;;;;;;5004720;28;20022;-79
2024/04/07 09:41:25;;;;;;;2.80;1.25;;;;;;;;;;5005040;28;20030;-79
2024/04/07 09:43:56;;;;;;;0.68;0.60;;;;;;;;;;5005069;28;20437;-79
2024/04/07 09:46:22;;;;;;;5.68;1.00;;;;;;;;;;5004766;28;20473;-79
2024/04/07 09:48:54;;;;;;;7.47;1.20;;;;;;;;;;4987357;28;20034;-77
2024/04/07 09:51:25;;;;;;;4.65;1.40;;;;;;;;;;5009065;28;20022;-77
2024/04/07 09:53:56;;;;;;;2.95;1.40;;;;;;;;;;4998796;28;20098;-78
2024/04/07 09:56:22;;;;;;;;;;;;;;;;;;4999461;28;20022;-78
2024/04/07 09:58:49;;;;;;;2.22;0.90;;;;;;;;;;4995555;28;20333;-80
2024/04/07 10:01:15;;;;;;;2.25;0.90;;;;;;;;;;5002290;28;20042;-78
2024/04/07 10:03:42;;;;;;;1.90;1.00;;;;;;;;;;5002103;28;20042;-78
2024/04/07 10:06:08;;;;;;;1.40;0.80;;;;;;;;;;4999976;28;20077;-79
2024/04/07 10:08:35;;;;;;;2.38;0.85;;;;;;;;;;4984230;28;20129;-79
2024/04/07 10:11:01;;;;;;;0.90;0.90;;;;;;;;;;4981618;28;20031;-79
2024/04/07 10:13:32;;;;;;;2.88;1.42;;;;;;;;;;5021932;28;20145;-79
2024/04/07 10:15:58;;;;;;;1.05;0.90;;;;;;;;;;5010248;28;20053;-78
2024/04/07 10:18:28;;;;;;;4.90;1.90;;;;;;;;;;5009038;28;20042;-77
2024/04/07 10:20:55;;;;;;;4.63;1.25;;;;;;;;;;5002088;28;20058;-78
2024/04/07 10:23:25;;;;;;;2.95;1.48;;;;;;;;;;4999931;28;20019;-79
2024/04/07 10:25:59;;;;;;;3.55;2.20;;;;;;;;;;5017577;28;20010;-78
2024/04/07 10:28:26;;;;;;;5.25;2.22;;;;;;;;;;5025527;28;20102;-78
2024/04/07 10:30:57;;;;;;;12.10;2.45;;;;;;;;;;5019579;28;20030;-79
2024/04/07 10:33:23;;;;;;;;;;;;;;;;;;5020210;28;20011;-78
2024/04/07 10:35:53;;;;;;;10.27;2.38;;;;;;;;;;5035448;28;19908;-79
2024/04/07 10:38:19;;;;;;;12.50;2.22;;;;;;;;;;5002103;28;20046;-79
2024/04/07 10:40:46;;;;;;;5.43;2.05;;;;;;;;;;5012262;28;20027;-79
2024/04/07 10:43:12;;;;;;;10.85;2.50;;;;;;;;;;4988368;28;20461;-79
2024/04/07 10:45:39;;;;;;;14.93;3.78;;;;;;;;;;4998042;28;20033;-80
2024/04/07 10:48:05;;;;;;;5.03;1.88;;;;;;;;;;4999793;28;20050;-80
2024/04/07 10:50:31;;;;;;;10.73;1.92;;;;;;;;;;5008322;28;20459;-80
2024/04/07 10:53:06;;;;;;;4.78;2.15;;;;;;;;;;5016528;28;20037;-80
2024/04/07 10:55:33;;;;;;;8.88;1.67;;;;;;;;;;4975884;28;20030;-80
2024/04/07 10:57:59;;;;;;;5.53;1.80;;;;;;;;;;5020966;28;20022;-79
2024/04/07 11:00:25;;;;;;;7.65;1.98;;;;;;;;;;5011959;28;20401;-79
2024/04/07 11:02:52;;;;;;;5.20;1.88;;;;;;;;;;5000164;28;20038;-78
2024/04/07 11:05:19;;;;;;;10.80;3.08;;;;;;;;;;4993182;28;20026;-80
2024/04/07 11:07:46;;;;;;;3.17;1.48;;;;;;;;;;5004512;28;20062;-80
2024/04/07 11:10:31;;;;;;;4.03;1.48;;;;;;;;;;5004508;28;20018;-81
2024/04/07 11:13:02;;;;;;;4.57;1.70;;;;;;;;;;5004750;28;20046;-81
2024/04/07 11:15:28;;;;;;;5.43;1.97;;;;;;;;;;4987887;28;20030;-80
2024/04/07 11:17:54;;;;;;;7.60;1.55;;;;;;;;;;5014436;28;20078;-79
2024/04/07 11:20:20;;;;;;;6.63;2.25;;;;;;;;;;5008597;28;20029;-79
2024/04/07 11:22:46;;;;;;;8.38;2.20;;;;;;;;;;5026948;28;20036;-78
2024/04/07 11:25:12;;;;;;;4.65;1.30;;;;;;;;;;5033388;28;20532;-77
2024/04/07 11:27:39;;;;;;;4.70;1.77;;;;;;;;;;4994333;28;20488;-80
2024/04/07 11:30:05;;;;;;;4.25;1.65;;;;;;;;;;5024375;28;20058;-80
2024/04/07 11:32:31;;;;;;;5.93;1.35;;;;;;;;;;5014593;28;20037;-81
2024/04/07 11:34:59;;;;;;;8.88;2.22;;;;;;;;;;5003432;28;20060;-80
2024/04/07 11:37:25;;;;;;;9.05;3.00;;;;;;;;;;5000035;28;20538;-80
2024/04/07 11:39:52;;;;;;;11.27;2.58;;;;;;;;;;4985287;28;20099;-81
2024/04/07 11:42:19;;;;;;;6.15;2.25;;;;;;;;;;4983574;28;20022;-80
2024/04/07 11:44:47;;;;;;;6.07;2.17;;;;;;;;;;4992695;28;20026;-81
2024/04/07 11:47:13;;;;;;;5.13;2.20;;;;;;;;;;4984632;28;20108;-79
2024/04/07 11:49:40;;;;;;;6.57;2.63;;;;;;;;;;5000469;28;20033;-79
2024/04/07 11:52:06;;;;;;;10.77;2.65;;;;;;;;;;4999101;28;20098;-80
2024/04/07 11:54:32;;;;;;;7.30;2.75;;;;;;;;;;5002856;28;20074;-80
2024/04/07 11:56:58;;;;;;;5.45;2.47;;;;;;;;;;5003157;28;20091;-80
2024/04/07 11:59:25;;;;;;;4.03;1.80;;;;;;;;;;4988516;28;20030;-80
2024/04/07 12:01:51;;;;;;;3.88;1.90;;;;;;;;;;5002950;28;20038;-78
2024/04/07 12:04:17;;;;;;;7.28;2.00;;;;;;;;;;4989411;28;20051;-80
2024/04/07 12:06:43;;;;;;;6.57;2.08;;;;;;;;;;4993365;28;20220;-78
2024/04/07 12:09:10;;;;;;;3.67;1.60;;;;;;;;;;5013083;28;20034;-78
2024/04/07 12:11:36;;;;;;;6.90;2.03;;;;;;;;;;5013444;28;20033;-78
2024/04/07 12:14:03;;;;;;;10.32;3.15;;;;;;;;;;4994068;28;20090;-80
2024/04/07 12:16:30;;;;;;;12.77;2.75;;;;;;;;;;4992144;28;20033;-80
2024/04/07 12:18:56;;;;;;;6.30;2.03;;;;;;;;;;5004362;28;20034;-80
2024/04/07 12:21:22;;;;;;;9.73;2.22;;;;;;;;;;5001194;28;20027;-80
2024/04/07 12:23:48;;;;;;;6.95;2.15;;;;;;;;;;4967351;28;20051;-80
2024/04/07 12:26:14;;;;;;;8.70;2.70;;;;;;;;;;4979255;28;20078;-80
2024/04/07 12:28:41;;;;;;;7.55;2.45;;;;;;;;;;4986864;28;20023;-81
2024/04/07 12:31:08;;;;;;;3.45;1.75;;;;;;;;;;4995732;28;20053;-79
2024/04/07 12:33:35;;;;;;;2.53;1.45;;;;;;;;;;5000331;28;20511;-80
2024/04/07 12:36:01;;;;;;;7.35;2.22;;;;;;;;;;5003660;28;20393;-81
2024/04/07 12:38:27;;;;;;;3.08;1.67;;;;;;;;;;5003802;28;20049;-81
2024/04/07 12:40:55;;;;;;;2.85;1.70;;;;;;;;;;5003521;28;20109;-80
2024/04/07 12:43:21;;;;;;;3.30;1.70;;;;;;;;;;5004303;28;20017;-79
2024/04/07 12:45:47;;;;;;;3.88;1.88;;;;;;;;;;5004144;28;20030;-80
2024/04/07 12:48:19;;;;;;;10.25;3.38;;;;;;;;;;4986648;28;20098;-80
2024/04/07 12:50:46;;;;;;;9.15;2.53;;;;;;;;;;5003080;28;20047;-79
2024/04/07 12:53:12;;;;;;;8.05;2.35;;;;;;;;;;5003666;28;20029;-79
2024/04/07 12:55:38;;;;;;;2.50;1.30;;;;;;;;;;5003106;28;20030;-80
2024/04/07 12:58:05;;;;;;;5.65;1.85;;;;;;;;;;5004076;28;20053;-80
2024/04/07 13:00:31;;;;;;;4.00;1.75;;;;;;;;;;5006033;28;20030;-80
2024/04/07 13:02:59;;;;;;;13.43;3.65;;;;;;;;;;5005389;28;20123;-81
2024/04/07 13:05:25;;;;;;;6.78;2.50;;;;;;;;;;4999007;28;20011;-81
2024/04/07 13:07:51;;;;;;;6.13;1.95;;;;;;;;;;5002778;28;20426;-80
2024/04/07 13:10:18;;;;;;;3.83;1.65;;;;;;;;;;4985373;28;20536;-80
2024/04/07 13:12:44;;;;;;;5.80;1.80;;;;;;;;;;4985647;28;20094;-80
2024/04/07 13:15:13;;;;;;;4.35;1.92;;;;;;;;;;4985179;28;20027;-79
2024/04/07 13:17:39;;;;;;;9.32;2.78;;;;;;;;;;5002807;28;20041;-80
2024/04/07 13:20:05;;;;;;;8.75;2.78;;;;;;;;;;5001175;28;20022;-78
2024/04/07 13:22:32;;;;;;;9.90;2.70;;;;;;;;;;4999256;28;20402;-79
2024/04/07 13:24:58;;;;;;;10.40;2.78;;;;;;;;;;4982656;28;20061;-78
2024/04/07 13:27:27;;;;;;;5.95;1.70;;;;;;;;;;5004339;28;20014;-78
2024/04/07 13:29:53;;;;;;;3.88;2.17;;;;;;;;;;5002150;28;20034;-80
2024/04/07 13:32:20;;;;;;;2.58;1.42;;;;;;;;;;5005063;28;20030;-80
2024/04/07 13:34:46;;;;;;;4.28;1.90;;;;;;;;;;5001422;28;20034;-80
2024/04/07 13:37:12;;;;;;;3.05;2.03;;;;;;;;;;5006407;28;20094;-80
2024/04/07 13:39:38;;;;;;;2.78;1.63;;;;;;;;;;5012140;28;20025;-81
2024/04/07 13:42:04;;;;;;;3.88;1.40;;;;;;;;;;5010492;28;20054;-80
2024/04/07 13:44:31;;;;;;;1.95;1.40;;;;;;;;;;5003739;28;20042;-78
2024/04/07 13:46:57;;;;;;;2.75;1.23;;;;;;;;;;4985771;28;20501;-79
2024/04/07 13:49:23;;;;;;;1.08;0.98;;;;;;;;;;5003621;28;20037;-80
2024/04/07 13:51:50;;;;;;;1.75;1.00;;;;;;;;;;5019784;28;20021;-79
2024/04/07 13:54:17;;;;;;;6.95;2.10;;;;;;;;;;5003387;28;20018;-79
2024/04/07 13:56:43;;;;;;;6.40;2.15;;;;;;;;;;5018584;28;20073;-79
2024/04/07 13:59:09;;;;;;;4.22;2.05;;;;;;;;;;5021192;28;20022;-78
2024/04/07 14:01:35;;;;;;;2.70;1.67;;;;;;;;;;5003409;28;20098;-79
2024/04/07 14:04:01;;;;;;;2.55;1.38;;;;;;;;;;5005685;28;20120;-79
2024/04/07 14:06:28;;;;;;;2.30;1.20;;;;;;;;;;5011156;28;20034;-78
2024/04/07 14:08:54;;;;;;;2.85;1.20;;;;;;;;;;5003963;28;20065;-79
2024/04/07 14:11:21;;;;;;;3.08;1.48;;;;;;;;;;5004559;28;20082;-80
2024/04/07 14:13:47;;;;;;;2.20;1.52;;;;;;;;;;5003960;28;20103;-80
2024/04/07 14:16:13;;;;;;;6.00;2.28;;;;;;;;;;4995638;28;20022;-80
2024/04/07 14:18:42;;;;;;;7.40;1.92;;;;;;;;;;4995431;28;20042;-80
2024/04/07 14:21:08;;;;;;;5.00;2.45;;;;;;;;;;4985620;28;20045;-79
2024/04/07 14:23:34;;;;;;;5.50;2.47;;;;;;;;;;5004732;28;20041;-78
2024/04/07 14:26:00;;;;;;;6.03;1.95;;;;;;;;;;5027339;28;20086;-78
2024/04/07 14:28:26;;;;;;;4.32;1.80;;;;;;;;;;4998800;28;20097;-77
2024/04/07 14:30:52;;;;;;;3.70;1.48;;;;;;;;;;5011620;28;20078;-79
2024/04/07 14:33:19;;;;;;;4.10;1.40;;;;;;;;;;5011872;28;20145;-80
2024/04/07 14:35:45;;;;;;;1.45;1.13;;;;;;;;;;5015341;28;20064;-80
2024/04/07 14:38:11;;;;;;;5.78;2.28;;;;;;;;;;5018735;28;20587;-79
2024/04/07 14:40:37;;;;;;;8.73;2.50;;;;;;;;;;4998754;28;20127;-81
2024/04/07 14:43:04;;;;;;;12.27;2.92;;;;;;;;;;5020416;28;20105;-79
2024/04/07 14:45:30;;;;;;;4.43;2.08;;;;;;;;;;5003672;28;20544;-80
2024/04/07 14:47:56;;;;;;;6.57;2.03;;;;;;;;;;5000782;28;20512;-80
2024/04/07 14:50:22;;;;;;;6.95;2.00;;;;;;;;;;4983965;28;20038;-79